sensor_id;sensor_type;location;lat;lon;timestamp;P1;durP1;ratioP1;P2;durP2;ratioP2
11797;SDS011;5956;51.428;6.682;2024-02-21T00:01:29;22.63;;;13.40;;
11797;SDS011;5956;51.428;6.682;2024-02-21T00:03:58;23.43;;;14.73;;
11797;SDS011;5956;51.428;6.682;2024-02-21T00:06:24;24.07;;;13.80;;
11797;SDS011;5956;51.428;6.682;2024-02-21T00:08:52;26.37;;;14.07;;
11797;SDS011;5956;51.428;6.682;2024-02-21T00:11:18;22.70;;;14.40;;
11797;SDS011;5956;51.428;6.682;2024-02-21T00:13:45;24.13;;;16.27;;
11797;SDS011;5956;51.428;6.682;2024-02-21T00:16:12;26.67;;;15.07;;
11797;SDS011;5956;51.428;6.682;2024-02-21T00:18:40;23.27;;;14.50;;
11797;SDS011;5956;51.428;6.682;2024-02-21T00:21:09;33.77;;;16.07;;
11797;SDS011;5956;51.428;6.682;2024-02-21T00:23:40;23.97;;;14.33;;
11797;SDS011;5956;51.428;6.682;2024-02-21T00:26:06;27.50;;;15.97;;
11797;SDS011;5956;51.428;6.682;2024-02-21T00:28:33;26.23;;;15.93;;
11797;SDS011;5956;51.428;6.682;2024-02-21T00:31:00;22.90;;;15.50;;
11797;SDS011;5956;51.428;6.682;2024-02-21T00:33:26;27.17;;;15.10;;
11797;SDS011;5956;51.428;6.682;2024-02-21T00:35:53;24.07;;;15.10;;
11797;SDS011;5956;51.428;6.682;2024-02-21T00:38:21;23.47;;;14.60;;
11797;SDS011;5956;51.428;6.682;2024-02-21T00:40:48;23.70;;;14.93;;
11797;SDS011;5956;51.428;6.682;2024-02-21T00:43:15;26.33;;;14.73;;
11797;SDS011;5956;51.428;6.682;2024-02-21T00:45:41;24.87;;;14.73;;
11797;SDS011;5956;51.428;6.682;2024-02-21T00:48:08;20.13;;;14.17;;
11797;SDS011;5956;51.428;6.682;2024-02-21T00:50:36;25.67;;;15.10;;
11797;SDS011;5956;51.428;6.682;2024-02-21T00:53:03;21.23;;;14.03;;
11797;SDS011;5956;51.428;6.682;2024-02-21T00:55:31;21.93;;;13.50;;
11797;SDS011;5956;51.428;6.682;2024-02-21T00:57:58;25.47;;;14.63;;
11797;SDS011;5956;51.428;6.682;2024-02-21T01:00:24;24.83;;;15.50;;
11797;SDS011;5956;51.428;6.682;2024-02-21T01:02:51;24.50;;;14.77;;
11797;SDS011;5956;51.428;6.682;2024-02-21T01:05:18;27.20;;;16.30;;
11797;SDS011;5956;51.428;6.682;2024-02-21T01:07:45;23.77;;;14.93;;
11797;SDS011;5956;51.428;6.682;2024-02-21T01:10:12;29.97;;;14.80;;
11797;SDS011;5956;51.428;6.682;2024-02-21T01:12:40;23.10;;;14.17;;
11797;SDS011;5956;51.428;6.682;2024-02-21T01:15:07;24.70;;;15.00;;
11797;SDS011;5956;51.428;6.682;2024-02-21T01:17:34;27.47;;;14.50;;
11797;SDS011;5956;51.428;6.682;2024-02-21T01:20:00;24.90;;;14.73;;
11797;SDS011;5956;51.428;6.682;2024-02-21T01:22:27;26.20;;;13.97;;
11797;SDS011;5956;51.428;6.682;2024-02-21T01:24:54;20.63;;;13.20;;
11797;SDS011;5956;51.428;6.682;2024-02-21T01:27:20;26.77;;;13.27;;
11797;SDS011;5956;51.428;6.682;2024-02-21T01:29:48;28.37;;;13.93;;
11797;SDS011;5956;51.428;6.682;2024-02-21T01:32:15;19.53;;;12.47;;
11797;SDS011;5956;51.428;6.682;2024-02-21T01:34:42;20.27;;;11.97;;
11797;SDS011;5956;51.428;6.682;2024-02-21T01:37:09;17.57;;;12.10;;
11797;SDS011;5956;51.428;6.682;2024-02-21T01:39:36;25.97;;;13.17;;
11797;SDS011;5956;51.428;6.682;2024-02-21T01:42:03;20.87;;;12.43;;
11797;SDS011;5956;51.428;6.682;2024-02-21T01:44:31;19.00;;;12.53;;
11797;SDS011;5956;51.428;6.682;2024-02-21T01:46:59;21.40;;;13.00;;
11797;SDS011;5956;51.428;6.682;2024-02-21T01:49:26;18.37;;;12.53;;
11797;SDS011;5956;51.428;6.682;2024-02-21T01:51:52;18.13;;;11.30;;
11797;SDS011;5956;51.428;6.682;2024-02-21T01:54:19;18.87;;;11.53;;
11797;SDS011;5956;51.428;6.682;2024-02-21T01:56:47;18.63;;;11.43;;
11797;SDS011;5956;51.428;6.682;2024-02-21T01:59:14;21.10;;;12.30;;
11797;SDS011;5956;51.428;6.682;2024-02-21T02:01:41;22.70;;;12.47;;
11797;SDS011;5956;51.428;6.682;2024-02-21T02:04:09;18.37;;;12.07;;
11797;SDS011;5956;51.428;6.682;2024-02-21T02:06:36;18.37;;;11.50;;
11797;SDS011;5956;51.428;6.682;2024-02-21T02:09:03;20.30;;;11.83;;
11797;SDS011;5956;51.428;6.682;2024-02-21T02:11:31;21.17;;;11.00;;
11797;SDS011;5956;51.428;6.682;2024-02-21T02:13:58;17.87;;;11.30;;
11797;SDS011;5956;51.428;6.682;2024-02-21T02:16:25;24.07;;;11.70;;
11797;SDS011;5956;51.428;6.682;2024-02-21T02:18:51;18.43;;;10.87;;
11797;SDS011;5956;51.428;6.682;2024-02-21T02:21:22;16.80;;;10.63;;
11797;SDS011;5956;51.428;6.682;2024-02-21T02:23:56;19.17;;;11.83;;
11797;SDS011;5956;51.428;6.682;2024-02-21T02:26:23;19.07;;;11.70;;
11797;SDS011;5956;51.428;6.682;2024-02-21T02:28:50;17.40;;;11.33;;
11797;SDS011;5956;51.428;6.682;2024-02-21T02:31:17;18.97;;;10.83;;
11797;SDS011;5956;51.428;6.682;2024-02-21T02:33:43;23.07;;;12.30;;
11797;SDS011;5956;51.428;6.682;2024-02-21T02:36:10;19.97;;;11.33;;
11797;SDS011;5956;51.428;6.682;2024-02-21T02:38:37;20.10;;;10.57;;
11797;SDS011;5956;51.428;6.682;2024-02-21T02:41:05;20.73;;;11.60;;
11797;SDS011;5956;51.428;6.682;2024-02-21T02:43:32;24.20;;;11.53;;
11797;SDS011;5956;51.428;6.682;2024-02-21T02:45:58;17.80;;;11.90;;
11797;SDS011;5956;51.428;6.682;2024-02-21T02:48:25;22.10;;;11.90;;
11797;SDS011;5956;51.428;6.682;2024-02-21T02:50:52;16.60;;;10.43;;
11797;SDS011;5956;51.428;6.682;2024-02-21T02:53:18;18.87;;;11.87;;
11797;SDS011;5956;51.428;6.682;2024-02-21T02:55:45;19.30;;;11.20;;
11797;SDS011;5956;51.428;6.682;2024-02-21T02:58:13;17.40;;;12.17;;
11797;SDS011;5956;51.428;6.682;2024-02-21T03:00:40;19.50;;;10.70;;
11797;SDS011;5956;51.428;6.682;2024-02-21T03:03:07;18.20;;;10.77;;
11797;SDS011;5956;51.428;6.682;2024-02-21T03:05:34;19.67;;;11.40;;
11797;SDS011;5956;51.428;6.682;2024-02-21T03:08:01;21.70;;;11.97;;
11797;SDS011;5956;51.428;6.682;2024-02-21T03:10:32;16.80;;;11.13;;
11797;SDS011;5956;51.428;6.682;2024-02-21T03:12:58;17.40;;;10.93;;
11797;SDS011;5956;51.428;6.682;2024-02-21T03:15:26;19.33;;;11.77;;
11797;SDS011;5956;51.428;6.682;2024-02-21T03:17:53;14.63;;;10.70;;
11797;SDS011;5956;51.428;6.682;2024-02-21T03:20:20;20.63;;;11.77;;
11797;SDS011;5956;51.428;6.682;2024-02-21T03:22:47;19.00;;;11.37;;
11797;SDS011;5956;51.428;6.682;2024-02-21T03:25:13;19.63;;;11.23;;
11797;SDS011;5956;51.428;6.682;2024-02-21T03:27:40;17.30;;;10.70;;
11797;SDS011;5956;51.428;6.682;2024-02-21T03:30:07;18.07;;;10.70;;
11797;SDS011;5956;51.428;6.682;2024-02-21T03:32:36;19.90;;;10.50;;
11797;SDS011;5956;51.428;6.682;2024-02-21T03:35:04;15.43;;;10.00;;
11797;SDS011;5956;51.428;6.682;2024-02-21T03:37:31;19.53;;;11.03;;
11797;SDS011;5956;51.428;6.682;2024-02-21T03:39:58;22.50;;;11.07;;
11797;SDS011;5956;51.428;6.682;2024-02-21T03:42:24;19.30;;;11.37;;
11797;SDS011;5956;51.428;6.682;2024-02-21T03:44:54;21.37;;;11.47;;
11797;SDS011;5956;51.428;6.682;2024-02-21T03:47:21;21.17;;;11.60;;
11797;SDS011;5956;51.428;6.682;2024-02-21T03:49:49;22.43;;;10.97;;
11797;SDS011;5956;51.428;6.682;2024-02-21T03:52:16;17.97;;;11.57;;
11797;SDS011;5956;51.428;6.682;2024-02-21T03:54:43;21.53;;;11.90;;
11797;SDS011;5956;51.428;6.682;2024-02-21T03:57:09;19.27;;;11.87;;
11797;SDS011;5956;51.428;6.682;2024-02-21T03:59:36;20.33;;;12.00;;
11797;SDS011;5956;51.428;6.682;2024-02-21T04:02:04;17.30;;;11.10;;
11797;SDS011;5956;51.428;6.682;2024-02-21T04:04:33;18.13;;;11.63;;
11797;SDS011;5956;51.428;6.682;2024-02-21T04:07:01;21.13;;;10.83;;
11797;SDS011;5956;51.428;6.682;2024-02-21T04:09:31;14.83;;;10.03;;
11797;SDS011;5956;51.428;6.682;2024-02-21T04:11:58;17.10;;;10.77;;
11797;SDS011;5956;51.428;6.682;2024-02-21T04:14:25;19.67;;;10.77;;
11797;SDS011;5956;51.428;6.682;2024-02-21T04:16:52;18.50;;;10.43;;
11797;SDS011;5956;51.428;6.682;2024-02-21T04:19:19;15.80;;;9.93;;
11797;SDS011;5956;51.428;6.682;2024-02-21T04:21:45;19.97;;;10.17;;
11797;SDS011;5956;51.428;6.682;2024-02-21T04:24:14;12.10;;;9.13;;
11797;SDS011;5956;51.428;6.682;2024-02-21T04:26:40;14.57;;;9.63;;
11797;SDS011;5956;51.428;6.682;2024-02-21T04:29:08;16.57;;;9.80;;
11797;SDS011;5956;51.428;6.682;2024-02-21T04:31:35;16.37;;;9.87;;
11797;SDS011;5956;51.428;6.682;2024-02-21T04:34:02;14.63;;;9.30;;
11797;SDS011;5956;51.428;6.682;2024-02-21T04:36:29;17.20;;;10.33;;
11797;SDS011;5956;51.428;6.682;2024-02-21T04:38:55;17.77;;;9.50;;
11797;SDS011;5956;51.428;6.682;2024-02-21T04:41:24;14.43;;;8.53;;
11797;SDS011;5956;51.428;6.682;2024-02-21T04:43:51;16.67;;;8.90;;
11797;SDS011;5956;51.428;6.682;2024-02-21T04:46:18;14.27;;;9.07;;
11797;SDS011;5956;51.428;6.682;2024-02-21T04:48:45;11.70;;;8.90;;
11797;SDS011;5956;51.428;6.682;2024-02-21T04:51:11;16.73;;;8.47;;
11797;SDS011;5956;51.428;6.682;2024-02-21T04:53:39;15.83;;;8.50;;
11797;SDS011;5956;51.428;6.682;2024-02-21T04:56:06;15.27;;;8.70;;
11797;SDS011;5956;51.428;6.682;2024-02-21T04:58:37;15.03;;;8.87;;
11797;SDS011;5956;51.428;6.682;2024-02-21T05:01:04;15.27;;;9.13;;
11797;SDS011;5956;51.428;6.682;2024-02-21T05:03:30;16.07;;;9.60;;
11797;SDS011;5956;51.428;6.682;2024-02-21T05:05:58;16.67;;;9.40;;
11797;SDS011;5956;51.428;6.682;2024-02-21T05:08:25;14.77;;;9.27;;
11797;SDS011;5956;51.428;6.682;2024-02-21T05:10:52;13.97;;;8.90;;
11797;SDS011;5956;51.428;6.682;2024-02-21T05:13:19;17.57;;;8.97;;
11797;SDS011;5956;51.428;6.682;2024-02-21T05:15:47;18.13;;;9.67;;
11797;SDS011;5956;51.428;6.682;2024-02-21T05:18:14;19.17;;;9.87;;
11797;SDS011;5956;51.428;6.682;2024-02-21T05:20:40;15.73;;;9.07;;
11797;SDS011;5956;51.428;6.682;2024-02-21T05:23:07;16.07;;;8.73;;
11797;SDS011;5956;51.428;6.682;2024-02-21T05:25:34;15.33;;;8.67;;
11797;SDS011;5956;51.428;6.682;2024-02-21T05:28:01;18.43;;;8.90;;
11797;SDS011;5956;51.428;6.682;2024-02-21T05:30:28;18.43;;;9.40;;
11797;SDS011;5956;51.428;6.682;2024-02-21T05:32:56;19.20;;;9.00;;
11797;SDS011;5956;51.428;6.682;2024-02-21T05:35:26;15.10;;;8.70;;
11797;SDS011;5956;51.428;6.682;2024-02-21T05:37:53;15.30;;;8.20;;
11797;SDS011;5956;51.428;6.682;2024-02-21T05:40:20;16.40;;;8.97;;
11797;SDS011;5956;51.428;6.682;2024-02-21T05:42:47;13.67;;;8.30;;
11797;SDS011;5956;51.428;6.682;2024-02-21T05:45:13;15.30;;;8.80;;
11797;SDS011;5956;51.428;6.682;2024-02-21T05:47:40;14.40;;;8.87;;
11797;SDS011;5956;51.428;6.682;2024-02-21T05:50:09;13.67;;;8.00;;
11797;SDS011;5956;51.428;6.682;2024-02-21T05:52:36;14.13;;;8.97;;
11797;SDS011;5956;51.428;6.682;2024-02-21T05:55:04;12.37;;;8.50;;
11797;SDS011;5956;51.428;6.682;2024-02-21T05:57:31;16.63;;;9.00;;
11797;SDS011;5956;51.428;6.682;2024-02-21T05:59:58;17.13;;;9.10;;
11797;SDS011;5956;51.428;6.682;2024-02-21T06:02:25;13.57;;;8.47;;
11797;SDS011;5956;51.428;6.682;2024-02-21T06:04:52;14.03;;;9.10;;
11797;SDS011;5956;51.428;6.682;2024-02-21T06:07:20;13.40;;;8.37;;
11797;SDS011;5956;51.428;6.682;2024-02-21T06:09:47;14.70;;;7.97;;
11797;SDS011;5956;51.428;6.682;2024-02-21T06:12:14;15.00;;;8.43;;
11797;SDS011;5956;51.428;6.682;2024-02-21T06:14:40;17.73;;;8.63;;
11797;SDS011;5956;51.428;6.682;2024-02-21T06:17:07;14.87;;;9.37;;
11797;SDS011;5956;51.428;6.682;2024-02-21T06:19:34;15.83;;;8.10;;
11797;SDS011;5956;51.428;6.682;2024-02-21T06:22:02;15.17;;;8.33;;
11797;SDS011;5956;51.428;6.682;2024-02-21T06:24:34;16.20;;;8.07;;
11797;SDS011;5956;51.428;6.682;2024-02-21T06:27:01;16.13;;;9.07;;
11797;SDS011;5956;51.428;6.682;2024-02-21T06:29:28;18.03;;;7.70;;
11797;SDS011;5956;51.428;6.682;2024-02-21T06:31:55;17.50;;;8.23;;
11797;SDS011;5956;51.428;6.682;2024-02-21T06:34:22;11.70;;;8.63;;
11797;SDS011;5956;51.428;6.682;2024-02-21T06:36:49;16.97;;;8.63;;
11797;SDS011;5956;51.428;6.682;2024-02-21T06:39:15;12.33;;;8.00;;
11797;SDS011;5956;51.428;6.682;2024-02-21T06:41:44;16.43;;;8.40;;
11797;SDS011;5956;51.428;6.682;2024-02-21T06:44:11;16.47;;;8.27;;
11797;SDS011;5956;51.428;6.682;2024-02-21T06:46:38;15.70;;;8.60;;
11797;SDS011;5956;51.428;6.682;2024-02-21T06:49:05;13.07;;;7.83;;
11797;SDS011;5956;51.428;6.682;2024-02-21T06:51:32;11.57;;;8.00;;
11797;SDS011;5956;51.428;6.682;2024-02-21T06:53:59;16.03;;;7.80;;
11797;SDS011;5956;51.428;6.682;2024-02-21T06:56:27;14.83;;;7.63;;
11797;SDS011;5956;51.428;6.682;2024-02-21T06:58:55;14.53;;;7.90;;
11797;SDS011;5956;51.428;6.682;2024-02-21T07:01:22;12.33;;;7.83;;
11797;SDS011;5956;51.428;6.682;2024-02-21T07:03:49;12.63;;;8.33;;
11797;SDS011;5956;51.428;6.682;2024-02-21T07:06:16;14.57;;;7.77;;
11797;SDS011;5956;51.428;6.682;2024-02-21T07:08:43;16.00;;;8.07;;
11797;SDS011;5956;51.428;6.682;2024-02-21T07:11:10;12.40;;;7.27;;
11797;SDS011;5956;51.428;6.682;2024-02-21T07:13:37;12.07;;;7.10;;
11797;SDS011;5956;51.428;6.682;2024-02-21T07:16:05;18.00;;;8.17;;
11797;SDS011;5956;51.428;6.682;2024-02-21T07:18:33;15.07;;;7.83;;
11797;SDS011;5956;51.428;6.682;2024-02-21T07:20:59;15.10;;;7.80;;
11797;SDS011;5956;51.428;6.682;2024-02-21T07:23:26;15.43;;;8.40;;
11797;SDS011;5956;51.428;6.682;2024-02-21T07:25:53;14.80;;;7.57;;
11797;SDS011;5956;51.428;6.682;2024-02-21T07:28:19;15.10;;;7.33;;
11797;SDS011;5956;51.428;6.682;2024-02-21T07:30:46;12.63;;;7.17;;
11797;SDS011;5956;51.428;6.682;2024-02-21T07:33:15;13.83;;;7.30;;
11797;SDS011;5956;51.428;6.682;2024-02-21T07:35:41;12.97;;;7.20;;
11797;SDS011;5956;51.428;6.682;2024-02-21T07:38:10;10.67;;;7.10;;
11797;SDS011;5956;51.428;6.682;2024-02-21T07:40:37;13.27;;;7.33;;
11797;SDS011;5956;51.428;6.682;2024-02-21T07:43:04;12.53;;;7.50;;
11797;SDS011;5956;51.428;6.682;2024-02-21T07:45:31;13.40;;;7.03;;
11797;SDS011;5956;51.428;6.682;2024-02-21T07:47:58;9.87;;;6.40;;
11797;SDS011;5956;51.428;6.682;2024-02-21T07:50:26;12.03;;;7.10;;
11797;SDS011;5956;51.428;6.682;2024-02-21T07:52:52;13.10;;;6.40;;
11797;SDS011;5956;51.428;6.682;2024-02-21T07:55:19;12.70;;;6.23;;
11797;SDS011;5956;51.428;6.682;2024-02-21T07:57:46;10.27;;;6.87;;
11797;SDS011;5956;51.428;6.682;2024-02-21T08:00:13;11.77;;;7.00;;
11797;SDS011;5956;51.428;6.682;2024-02-21T08:02:45;12.77;;;6.77;;
11797;SDS011;5956;51.428;6.682;2024-02-21T08:05:12;11.13;;;6.43;;
11797;SDS011;5956;51.428;6.682;2024-02-21T08:07:40;9.67;;;6.23;;
11797;SDS011;5956;51.428;6.682;2024-02-21T08:10:07;13.20;;;5.90;;
11797;SDS011;5956;51.428;6.682;2024-02-21T08:12:35;10.97;;;6.80;;
11797;SDS011;5956;51.428;6.682;2024-02-21T08:15:03;10.20;;;6.40;;
11797;SDS011;5956;51.428;6.682;2024-02-21T08:17:31;7.53;;;5.40;;
11797;SDS011;5956;51.428;6.682;2024-02-21T08:19:58;9.37;;;5.13;;
11797;SDS011;5956;51.428;6.682;2024-02-21T08:22:26;6.57;;;5.47;;
11797;SDS011;5956;51.428;6.682;2024-02-21T08:24:54;12.37;;;5.97;;
11797;SDS011;5956;51.428;6.682;2024-02-21T08:27:20;16.33;;;8.50;;
11797;SDS011;5956;51.428;6.682;2024-02-21T08:29:47;11.73;;;6.70;;
11797;SDS011;5956;51.428;6.682;2024-02-21T08:32:14;12.33;;;6.80;;
11797;SDS011;5956;51.428;6.682;2024-02-21T08:34:41;13.70;;;7.50;;
11797;SDS011;5956;51.428;6.682;2024-02-21T08:37:07;12.30;;;7.00;;
11797;SDS011;5956;51.428;6.682;2024-02-21T08:39:35;16.13;;;7.37;;
11797;SDS011;5956;51.428;6.682;2024-02-21T08:42:04;10.50;;;6.20;;
11797;SDS011;5956;51.428;6.682;2024-02-21T08:44:31;12.07;;;6.80;;
11797;SDS011;5956;51.428;6.682;2024-02-21T08:46:57;13.90;;;6.40;;
11797;SDS011;5956;51.428;6.682;2024-02-21T08:49:25;11.17;;;6.07;;
11797;SDS011;5956;51.428;6.682;2024-02-21T08:51:53;11.57;;;6.77;;
11797;SDS011;5956;51.428;6.682;2024-02-21T08:54:20;13.13;;;5.93;;
11797;SDS011;5956;51.428;6.682;2024-02-21T08:56:47;14.73;;;6.17;;
11797;SDS011;5956;51.428;6.682;2024-02-21T08:59:15;10.00;;;6.17;;
11797;SDS011;5956;51.428;6.682;2024-02-21T09:01:43;12.27;;;5.90;;
11797;SDS011;5956;51.428;6.682;2024-02-21T09:04:10;11.57;;;6.07;;
11797;SDS011;5956;51.428;6.682;2024-02-21T09:06:38;12.53;;;5.17;;
11797;SDS011;5956;51.428;6.682;2024-02-21T09:09:07;14.20;;;5.80;;
11797;SDS011;5956;51.428;6.682;2024-02-21T09:11:34;10.97;;;5.97;;
11797;SDS011;5956;51.428;6.682;2024-02-21T09:14:01;7.93;;;5.60;;
11797;SDS011;5956;51.428;6.682;2024-02-21T09:16:30;12.30;;;5.20;;
11797;SDS011;5956;51.428;6.682;2024-02-21T09:18:57;9.30;;;5.80;;
11797;SDS011;5956;51.428;6.682;2024-02-21T09:21:24;10.87;;;5.47;;
11797;SDS011;5956;51.428;6.682;2024-02-21T09:23:51;12.80;;;5.80;;
11797;SDS011;5956;51.428;6.682;2024-02-21T09:26:18;11.70;;;5.43;;
11797;SDS011;5956;51.428;6.682;2024-02-21T09:28:44;12.60;;;5.70;;
11797;SDS011;5956;51.428;6.682;2024-02-21T09:31:11;14.67;;;8.53;;
11797;SDS011;5956;51.428;6.682;2024-02-21T09:33:40;8.87;;;4.80;;
11797;SDS011;5956;51.428;6.682;2024-02-21T09:36:06;9.37;;;4.90;;
11797;SDS011;5956;51.428;6.682;2024-02-21T09:38:33;8.13;;;5.30;;
11797;SDS011;5956;51.428;6.682;2024-02-21T09:41:00;9.83;;;4.80;;
11797;SDS011;5956;51.428;6.682;2024-02-21T09:43:32;8.57;;;4.33;;
11797;SDS011;5956;51.428;6.682;2024-02-21T09:46:00;7.17;;;4.83;;
11797;SDS011;5956;51.428;6.682;2024-02-21T09:48:30;7.87;;;4.83;;
11797;SDS011;5956;51.428;6.682;2024-02-21T09:51:09;8.43;;;4.90;;
11797;SDS011;5956;51.428;6.682;2024-02-21T09:53:37;11.07;;;4.60;;
11797;SDS011;5956;51.428;6.682;2024-02-21T09:56:05;9.60;;;4.27;;
11797;SDS011;5956;51.428;6.682;2024-02-21T09:58:34;9.00;;;4.30;;
11797;SDS011;5956;51.428;6.682;2024-02-21T10:01:00;8.23;;;4.10;;
11797;SDS011;5956;51.428;6.682;2024-02-21T10:03:29;6.37;;;4.13;;
11797;SDS011;5956;51.428;6.682;2024-02-21T10:05:57;6.80;;;4.33;;
11797;SDS011;5956;51.428;6.682;2024-02-21T10:08:26;7.17;;;4.00;;
11797;SDS011;5956;51.428;6.682;2024-02-21T10:10:53;7.83;;;4.30;;
11797;SDS011;5956;51.428;6.682;2024-02-21T10:13:24;6.53;;;4.50;;
11797;SDS011;5956;51.428;6.682;2024-02-21T10:18:34;10.13;;;4.20;;
11797;SDS011;5956;51.428;6.682;2024-02-21T10:21:03;7.93;;;4.30;;
11797;SDS011;5956;51.428;6.682;2024-02-21T10:23:40;7.77;;;4.80;;
11797;SDS011;5956;51.428;6.682;2024-02-21T10:26:08;6.60;;;3.53;;
11797;SDS011;5956;51.428;6.682;2024-02-21T10:28:35;8.83;;;4.13;;
11797;SDS011;5956;51.428;6.682;2024-02-21T10:31:01;7.43;;;4.00;;
11797;SDS011;5956;51.428;6.682;2024-02-21T10:33:28;7.37;;;4.07;;
11797;SDS011;5956;51.428;6.682;2024-02-21T10:36:07;6.93;;;3.90;;
11797;SDS011;5956;51.428;6.682;2024-02-21T10:38:35;8.93;;;4.37;;
11797;SDS011;5956;51.428;6.682;2024-02-21T10:41:03;8.07;;;4.23;;
11797;SDS011;5956;51.428;6.682;2024-02-21T10:43:31;8.27;;;3.97;;
11797;SDS011;5956;51.428;6.682;2024-02-21T10:46:04;5.97;;;3.80;;
11797;SDS011;5956;51.428;6.682;2024-02-21T10:48:33;7.50;;;3.70;;
11797;SDS011;5956;51.428;6.682;2024-02-21T10:51:14;9.30;;;3.53;;
11797;SDS011;5956;51.428;6.682;2024-02-21T10:53:44;6.53;;;3.30;;
11797;SDS011;5956;51.428;6.682;2024-02-21T10:56:16;6.90;;;3.63;;
11797;SDS011;5956;51.428;6.682;2024-02-21T10:58:47;6.33;;;3.57;;
11797;SDS011;5956;51.428;6.682;2024-02-21T11:01:14;6.33;;;3.67;;
11797;SDS011;5956;51.428;6.682;2024-02-21T11:03:43;4.33;;;2.97;;
11797;SDS011;5956;51.428;6.682;2024-02-21T11:06:13;8.43;;;3.87;;
11797;SDS011;5956;51.428;6.682;2024-02-21T11:08:40;6.07;;;3.10;;
11797;SDS011;5956;51.428;6.682;2024-02-21T11:11:07;7.47;;;3.30;;
11797;SDS011;5956;51.428;6.682;2024-02-21T11:13:35;6.00;;;3.67;;
11797;SDS011;5956;51.428;6.682;2024-02-21T11:16:06;6.87;;;3.90;;
11797;SDS011;5956;51.428;6.682;2024-02-21T11:18:34;8.37;;;3.80;;
11797;SDS011;5956;51.428;6.682;2024-02-21T11:21:01;10.10;;;3.77;;
11797;SDS011;5956;51.428;6.682;2024-02-21T11:23:31;9.33;;;5.23;;
11797;SDS011;5956;51.428;6.682;2024-02-21T11:28:32;7.10;;;3.80;;
11797;SDS011;5956;51.428;6.682;2024-02-21T11:31:09;5.43;;;3.90;;
11797;SDS011;5956;51.428;6.682;2024-02-21T11:33:39;7.23;;;3.80;;
11797;SDS011;5956;51.428;6.682;2024-02-21T11:36:07;6.53;;;3.33;;
11797;SDS011;5956;51.428;6.682;2024-02-21T11:38:36;5.83;;;3.33;;
11797;SDS011;5956;51.428;6.682;2024-02-21T11:41:03;6.97;;;3.70;;
11797;SDS011;5956;51.428;6.682;2024-02-21T11:43:34;8.40;;;3.73;;
11797;SDS011;5956;51.428;6.682;2024-02-21T11:46:01;7.40;;;3.97;;
11797;SDS011;5956;51.428;6.682;2024-02-21T11:48:29;5.77;;;3.50;;
11797;SDS011;5956;51.428;6.682;2024-02-21T11:50:56;4.00;;;3.60;;
11797;SDS011;5956;51.428;6.682;2024-02-21T11:53:23;7.43;;;3.90;;
11797;SDS011;5956;51.428;6.682;2024-02-21T11:55:57;6.07;;;3.47;;
11797;SDS011;5956;51.428;6.682;2024-02-21T11:58:24;8.50;;;4.00;;
11797;SDS011;5956;51.428;6.682;2024-02-21T12:00:51;8.70;;;4.37;;
11797;SDS011;5956;51.428;6.682;2024-02-21T12:03:18;8.57;;;3.80;;
11797;SDS011;5956;51.428;6.682;2024-02-21T12:05:46;7.93;;;4.07;;
11797;SDS011;5956;51.428;6.682;2024-02-21T12:08:13;7.97;;;4.27;;
11797;SDS011;5956;51.428;6.682;2024-02-21T12:10:41;5.47;;;3.70;;
11797;SDS011;5956;51.428;6.682;2024-02-21T12:13:10;9.53;;;4.23;;
11797;SDS011;5956;51.428;6.682;2024-02-21T12:15:38;9.37;;;4.03;;
11797;SDS011;5956;51.428;6.682;2024-02-21T12:18:05;6.17;;;3.87;;
11797;SDS011;5956;51.428;6.682;2024-02-21T12:20:32;9.13;;;4.00;;
11797;SDS011;5956;51.428;6.682;2024-02-21T12:22:59;9.80;;;3.90;;
11797;SDS011;5956;51.428;6.682;2024-02-21T12:25:27;5.43;;;3.90;;
11797;SDS011;5956;51.428;6.682;2024-02-21T12:27:54;7.87;;;4.23;;
11797;SDS011;5956;51.428;6.682;2024-02-21T12:30:23;10.87;;;6.80;;
11797;SDS011;5956;51.428;6.682;2024-02-21T12:32:50;7.27;;;4.40;;
11797;SDS011;5956;51.428;6.682;2024-02-21T12:35:16;9.27;;;4.03;;
11797;SDS011;5956;51.428;6.682;2024-02-21T12:37:44;4.90;;;3.83;;
11797;SDS011;5956;51.428;6.682;2024-02-21T12:40:11;8.83;;;4.07;;
11797;SDS011;5956;51.428;6.682;2024-02-21T12:42:39;12.27;;;3.93;;
11797;SDS011;5956;51.428;6.682;2024-02-21T12:45:06;5.20;;;3.27;;
11797;SDS011;5956;51.428;6.682;2024-02-21T12:47:35;7.10;;;3.70;;
11797;SDS011;5956;51.428;6.682;2024-02-21T12:50:02;4.20;;;3.50;;
11797;SDS011;5956;51.428;6.682;2024-02-21T12:52:31;9.87;;;3.80;;
11797;SDS011;5956;51.428;6.682;2024-02-21T12:54:58;8.40;;;4.07;;
11797;SDS011;5956;51.428;6.682;2024-02-21T12:57:25;6.20;;;3.73;;
11797;SDS011;5956;51.428;6.682;2024-02-21T12:59:52;7.97;;;3.90;;
11797;SDS011;5956;51.428;6.682;2024-02-21T13:02:18;8.70;;;3.67;;
11797;SDS011;5956;51.428;6.682;2024-02-21T13:04:47;6.20;;;3.00;;
11797;SDS011;5956;51.428;6.682;2024-02-21T13:07:16;7.70;;;3.70;;
11797;SDS011;5956;51.428;6.682;2024-02-21T13:09:43;7.90;;;5.23;;
11797;SDS011;5956;51.428;6.682;2024-02-21T13:12:10;7.67;;;3.23;;
11797;SDS011;5956;51.428;6.682;2024-02-21T13:14:37;6.33;;;3.00;;
11797;SDS011;5956;51.428;6.682;2024-02-21T13:17:04;6.73;;;3.37;;
11797;SDS011;5956;51.428;6.682;2024-02-21T13:19:31;7.43;;;3.53;;
11797;SDS011;5956;51.428;6.682;2024-02-21T13:21:59;5.90;;;3.40;;
11797;SDS011;5956;51.428;6.682;2024-02-21T13:24:27;5.43;;;3.07;;
11797;SDS011;5956;51.428;6.682;2024-02-21T13:26:54;8.50;;;3.40;;
11797;SDS011;5956;51.428;6.682;2024-02-21T13:29:20;5.80;;;3.00;;
11797;SDS011;5956;51.428;6.682;2024-02-21T13:31:47;5.07;;;3.10;;
11797;SDS011;5956;51.428;6.682;2024-02-21T13:34:15;4.13;;;3.17;;
11797;SDS011;5956;51.428;6.682;2024-02-21T13:36:42;6.40;;;3.13;;
11797;SDS011;5956;51.428;6.682;2024-02-21T13:39:10;5.17;;;2.60;;
11797;SDS011;5956;51.428;6.682;2024-02-21T13:41:40;6.10;;;3.10;;
11797;SDS011;5956;51.428;6.682;2024-02-21T13:44:07;5.00;;;3.13;;
11797;SDS011;5956;51.428;6.682;2024-02-21T13:46:35;10.60;;;4.27;;
11797;SDS011;5956;51.428;6.682;2024-02-21T13:49:03;6.83;;;3.77;;
11797;SDS011;5956;51.428;6.682;2024-02-21T13:51:31;5.67;;;3.23;;
11797;SDS011;5956;51.428;6.682;2024-02-21T13:53:58;11.40;;;3.47;;
11797;SDS011;5956;51.428;6.682;2024-02-21T13:56:27;5.60;;;3.63;;
11797;SDS011;5956;51.428;6.682;2024-02-21T13:58:54;6.17;;;3.53;;
11797;SDS011;5956;51.428;6.682;2024-02-21T14:01:21;7.07;;;3.50;;
11797;SDS011;5956;51.428;6.682;2024-02-21T14:03:48;5.93;;;3.67;;
11797;SDS011;5956;51.428;6.682;2024-02-21T14:06:14;9.50;;;4.00;;
11797;SDS011;5956;51.428;6.682;2024-02-21T14:08:42;6.70;;;3.50;;
11797;SDS011;5956;51.428;6.682;2024-02-21T14:11:09;5.57;;;3.50;;
11797;SDS011;5956;51.428;6.682;2024-02-21T14:13:41;7.87;;;3.47;;
11797;SDS011;5956;51.428;6.682;2024-02-21T14:16:09;7.77;;;3.83;;
11797;SDS011;5956;51.428;6.682;2024-02-21T14:18:38;9.67;;;3.70;;
11797;SDS011;5956;51.428;6.682;2024-02-21T14:21:07;5.43;;;3.23;;
11797;SDS011;5956;51.428;6.682;2024-02-21T14:23:36;7.67;;;3.70;;
11797;SDS011;5956;51.428;6.682;2024-02-21T14:26:03;8.00;;;3.73;;
11797;SDS011;5956;51.428;6.682;2024-02-21T14:28:30;6.53;;;3.87;;
11797;SDS011;5956;51.428;6.682;2024-02-21T14:30:59;6.67;;;3.63;;
11797;SDS011;5956;51.428;6.682;2024-02-21T14:33:26;5.83;;;3.40;;
11797;SDS011;5956;51.428;6.682;2024-02-21T14:35:54;6.43;;;3.70;;
11797;SDS011;5956;51.428;6.682;2024-02-21T14:38:21;7.70;;;3.23;;
11797;SDS011;5956;51.428;6.682;2024-02-21T14:40:48;5.50;;;3.20;;
11797;SDS011;5956;51.428;6.682;2024-02-21T14:43:15;5.47;;;3.60;;
11797;SDS011;5956;51.428;6.682;2024-02-21T14:45:43;5.90;;;3.47;;
11797;SDS011;5956;51.428;6.682;2024-02-21T14:48:14;9.83;;;4.03;;
11797;SDS011;5956;51.428;6.682;2024-02-21T14:50:41;10.13;;;3.80;;
11797;SDS011;5956;51.428;6.682;2024-02-21T14:53:08;7.30;;;4.73;;
11797;SDS011;5956;51.428;6.682;2024-02-21T14:55:35;6.90;;;3.33;;